Time;durP1;ratioP1;P1;durP2;ratioP2;P2;SDS_P1;SDS_P2;PMS_P1;PMS_P2;Temp;Humidity;BMP_temperature;BMP_pressure;BME280_temperature;BME280_humidity;BME280_pressure;Samples;Min_cycle;Max_cycle;Signal;HPM_P1;HPM_P2
2022/07/17 00:00:20;;;;;;;;;3.50;3.00;;;;;25.69;25.18;101941.84;5073177;28;45465;-60
2022/07/17 00:02:47;;;;;;;;;5.50;5.50;;;;;25.68;25.26;101944.63;5055761;28;48174;-60
2022/07/17 00:05:13;;;;;;;;;3.25;3.25;;;;;25.62;25.55;101935.97;5060372;28;45292;-60
2022/07/17 00:07:39;;;;;;;;;4.25;3.00;;;;;25.58;25.67;101936.22;5046683;28;45241;-60
2022/07/17 00:10:05;;;;;;;;;4.00;4.00;;;;;25.56;25.48;101943.53;5041142;28;45237;-60
2022/07/17 00:12:30;;;;;;;;;5.25;5.25;;;;;25.52;25.22;101947.34;5054924;28;45958;-60
2022/07/17 00:14:56;;;;;;;;;4.25;3.50;;;;;25.45;25.21;101938.78;5041208;28;45187;-60
2022/07/17 00:17:21;;;;;;;;;2.50;2.00;;;;;25.43;25.65;101943.38;5040967;28;45291;-60
2022/07/17 00:19:47;;;;;;;;;4.00;4.00;;;;;25.41;25.46;101945.31;5040880;28;45528;-60
2022/07/17 00:22:12;;;;;;;;;5.00;5.00;;;;;25.38;25.89;101942.78;5040811;28;45512;-61
2022/07/17 00:24:38;;;;;;;;;4.00;4.00;;;;;25.36;25.51;101944.66;5049059;28;45378;-61
2022/07/17 00:27:03;;;;;;;;;5.25;4.00;;;;;25.30;25.44;101935.97;5046235;28;45385;-61
2022/07/17 00:29:29;;;;;;;;;4.00;3.25;;;;;25.28;25.53;101935.22;5057520;28;45526;-61
2022/07/17 00:31:54;;;;;;;;;4.50;4.50;;;;;25.25;25.79;101931.84;5064214;28;46210;-60
2022/07/17 00:34:19;;;;;;;;;4.00;4.00;;;;;25.23;25.75;101941.81;5040995;28;45352;-60
2022/07/17 00:36:44;;;;;;;;;6.00;4.75;;;;;25.16;26.14;101930.53;5040508;28;45343;-60
2022/07/17 00:39:10;;;;;;;;;4.75;4.75;;;;;25.17;25.76;101939.47;5060699;28;45420;-60
2022/07/17 00:41:35;;;;;;;;;5.00;5.00;;;;;25.11;25.73;101938.88;5045351;28;46133;-59
2022/07/17 00:44:10;;;;;;;;;5.00;5.00;;;;;25.06;25.53;101934.72;5040552;28;45387;-60
2022/07/17 00:46:35;;;;;;;;;4.50;4.50;;;;;25.03;26.14;101938.47;5040575;28;45404;-60
2022/07/17 00:49:02;;;;;;;;;8.25;5.50;;;;;24.99;26.14;101936.88;5040608;28;45333;-60
2022/07/17 00:51:27;;;;;;;;;4.25;4.25;;;;;24.94;26.13;101917.44;5040062;28;46259;-60
2022/07/17 00:53:57;;;;;;;;;4.00;4.00;;;;;24.92;26.18;101927.44;5040454;28;45221;-60
2022/07/17 00:56:24;;;;;;;;;3.75;3.75;;;;;24.87;26.06;101927.69;5046747;28;45310;-61
2022/07/17 00:58:50;;;;;;;;;4.75;4.00;;;;;24.84;26.15;101933.22;5070426;28;45455;-61
2022/07/17 01:01:16;;;;;;;;;4.50;4.50;;;;;24.81;26.25;101933.41;5043074;28;46840;-61
2022/07/17 01:03:42;;;;;;;;;4.00;4.00;;;;;24.77;26.33;101935.38;5047222;28;45277;-61
2022/07/17 01:06:07;;;;;;;;;6.00;4.00;;;;;24.74;26.48;101929.31;5057013;28;45269;-61
2022/07/17 01:08:34;;;;;;;;;4.00;4.00;;;;;24.70;26.72;101935.81;5054403;28;45269;-62
2022/07/17 01:11:00;;;;;;;;;4.00;4.00;;;;;24.65;26.54;101936.94;5047276;28;47324;-61
2022/07/17 01:13:26;;;;;;;;;5.75;3.00;;;;;24.63;26.78;101940.66;5051939;28;45254;-61
2022/07/17 01:15:52;;;;;;;;;5.75;5.00;;;;;24.58;26.40;101943.56;5022048;28;45270;-61
2022/07/17 01:18:17;;;;;;;;;3.75;3.50;;;;;24.55;26.60;101941.03;5022377;28;45871;-61
2022/07/17 01:20:46;;;;;;;;;4.75;4.00;;;;;24.52;26.79;101938.53;5039621;28;46323;-61
2022/07/17 01:23:13;;;;;;;;;4.00;4.00;;;;;24.48;26.49;101931.59;5040197;28;45391;-62
2022/07/17 01:25:38;;;;;;;;;5.00;3.25;;;;;24.45;26.88;101937.13;5040044;28;45221;-62
2022/07/17 01:28:04;;;;;;;;;3.25;3.00;;;;;24.40;26.65;101933.81;5040164;28;45283;-61
2022/07/17 01:30:30;;;;;;;;;4.75;3.00;;;;;24.34;26.88;101925.16;5038483;28;48141;-61
2022/07/17 01:32:55;;;;;;;;;4.25;3.25;;;;;24.32;27.01;101927.03;5040117;28;45293;-61
2022/07/17 01:35:21;;;;;;;;;3.00;3.00;;;;;24.27;27.23;101929.09;5039745;28;45250;-62
2022/07/17 01:37:47;;;;;;;;;5.00;4.25;;;;;24.26;26.87;101934.56;5030442;28;45489;-61
2022/07/17 01:40:15;;;;;;;;;3.25;2.25;;;;;24.22;27.20;101941.06;5063157;28;45301;-62
2022/07/17 01:42:48;;;;;;;;;5.50;5.00;;;;;24.18;27.06;101943.88;5069552;28;45358;-62
2022/07/17 01:45:16;;;;;;;;;4.50;4.50;;;;;24.15;26.76;101936.00;5041426;28;45262;-61
2022/07/17 01:47:42;;;;;;;;;4.75;4.75;;;;;24.11;26.99;101938.91;5039681;28;45487;-61
2022/07/17 01:50:09;;;;;;;;;3.75;3.75;;;;;24.12;27.23;101935.28;5039126;28;47179;-62
2022/07/17 01:52:37;;;;;;;;;5.25;5.25;;;;;24.06;27.39;101933.78;5039686;28;45221;-62
2022/07/17 01:55:06;;;;;;;;;5.00;5.00;;;;;24.03;27.23;101933.97;5043271;28;45354;-62
2022/07/17 01:57:32;;;;;;;;;3.50;3.50;;;;;23.97;27.21;101927.09;5068781;28;45333;-62
2022/07/17 01:59:57;;;;;;;;;4.00;4.00;;;;;23.95;27.23;101926.31;5083334;28;45331;-61
2022/07/17 02:02:22;;;;;;;;;4.25;4.00;;;;;23.92;27.09;101925.59;5065259;28;46119;-61
2022/07/17 02:04:48;;;;;;;;;4.50;3.75;;;;;23.91;27.49;101926.50;5061959;28;45299;-61
2022/07/17 02:07:13;;;;;;;;;4.00;3.00;;;;;23.87;27.52;101925.81;5052421;28;48695;-62
2022/07/17 02:09:39;;;;;;;;;4.50;4.00;;;;;23.84;27.54;101918.78;5042830;28;45376;-62
2022/07/17 02:12:05;;;;;;;;;5.00;5.00;;;;;23.83;27.58;101919.72;5054434;28;45348;-61
2022/07/17 02:14:30;;;;;;;;;4.00;3.50;;;;;23.78;27.69;101913.72;5045688;28;45282;-61
2022/07/17 02:16:56;;;;;;;;;4.25;4.25;;;;;23.78;27.55;101919.09;5042961;28;45380;-62
2022/07/17 02:19:21;;;;;;;;;6.75;4.00;;;;;23.76;27.87;101920.13;5042737;28;45399;-61
2022/07/17 02:21:47;;;;;;;;;7.00;4.25;;;;;23.71;27.43;101923.06;5041343;28;45299;-62
2022/07/17 02:24:12;;;;;;;;;4.00;4.00;;;;;23.69;27.96;101915.06;5042764;28;45595;-61
2022/07/17 02:26:38;;;;;;;;;3.00;3.00;;;;;23.66;27.70;101917.03;5042972;28;45221;-62
2022/07/17 02:29:03;;;;;;;;;3.00;3.00;;;;;23.63;27.73;101923.41;5042550;28;46149;-61
2022/07/17 02:31:28;;;;;;;;;3.75;3.75;;;;;23.57;28.12;101912.16;5042823;28;45329;-62
2022/07/17 02:33:54;;;;;;;;;4.00;4.00;;;;;23.59;27.93;101919.16;5042719;28;45781;-61
2022/07/17 02:36:19;;;;;;;;;3.50;3.50;;;;;23.56;27.93;101913.09;5024683;28;45539;-61
2022/07/17 02:38:45;;;;;;;;;8.75;6.00;;;;;23.53;28.09;101917.69;5059858;28;46196;-61
2022/07/17 02:41:10;;;;;;;;;4.50;4.50;;;;;23.49;28.29;101915.22;5051836;28;45434;-61
2022/07/17 02:43:35;;;;;;;;;3.50;2.00;;;;;23.44;28.49;101910.06;5042434;28;45464;-61
2022/07/17 02:46:02;;;;;;;;;3.50;3.50;;;;;23.45;28.04;101916.34;5042577;28;45317;-61
2022/07/17 02:48:27;;;;;;;;;3.00;3.00;;;;;23.41;28.19;101912.03;5042431;28;45500;-61
2022/07/17 02:50:52;;;;;;;;;3.50;3.50;;;;;23.37;28.06;101919.41;5031889;28;45355;-61
2022/07/17 02:53:18;;;;;;;;;4.25;4.25;;;;;23.35;28.38;101910.56;5055902;28;45486;-61
2022/07/17 02:55:43;;;;;;;;;5.75;5.75;;;;;23.32;28.30;101921.41;5042547;28;45404;-61
2022/07/17 02:58:08;;;;;;;;;5.00;5.00;;;;;23.28;28.53;101914.47;5042032;28;46251;-61
2022/07/17 03:00:34;;;;;;;;;4.75;4.75;;;;;23.26;28.35;101914.56;5040879;28;51061;-61
2022/07/17 03:02:59;;;;;;;;;4.00;2.75;;;;;23.24;28.32;101912.91;5043307;28;45147;-61
2022/07/17 03:05:24;;;;;;;;;6.00;6.00;;;;;23.20;28.24;101904.13;5043577;28;45284;-61
2022/07/17 03:07:50;;;;;;;;;5.00;4.00;;;;;23.20;28.09;101909.50;5046247;28;46022;-61
2022/07/17 03:10:15;;;;;;;;;4.25;4.25;;;;;23.18;28.36;101908.69;5042758;28;45155;-61
2022/07/17 03:12:41;;;;;;;;;3.75;3.75;;;;;23.16;28.50;101905.25;5055683;28;45471;-61
2022/07/17 03:15:07;;;;;;;;;5.00;4.25;;;;;23.14;28.51;101907.94;5042130;28;45459;-61
2022/07/17 03:17:33;;;;;;;;;5.00;5.00;;;;;23.11;28.77;101909.91;5041809;28;46461;-61
2022/07/17 03:19:59;;;;;;;;;7.00;3.25;;;;;23.09;28.49;101914.47;5041618;28;45354;-61
2022/07/17 03:22:25;;;;;;;;;5.00;5.00;;;;;23.06;28.69;101907.47;5041926;28;45389;-61
2022/07/17 03:24:50;;;;;;;;;4.25;4.00;;;;;23.03;28.84;101905.78;5041861;28;45270;-62
2022/07/17 03:27:17;;;;;;;;;4.50;4.50;;;;;23.00;28.86;101911.28;5041864;28;46011;-62
2022/07/17 03:29:42;;;;;;;;;4.25;3.50;;;;;22.97;28.55;101916.81;5041801;28;45357;-61
2022/07/17 03:32:08;;;;;;;;;4.00;4.00;;;;;22.92;28.86;101913.47;5047305;28;45242;-61
2022/07/17 03:34:33;;;;;;;;;4.00;4.00;;;;;22.89;28.68;101910.94;5072186;28;49644;-62
2022/07/17 03:36:58;;;;;;;;;4.00;4.00;;;;;22.87;29.23;101924.41;5049316;28;46300;-61
2022/07/17 03:39:23;;;;;;;;;4.50;4.50;;;;;22.83;28.70;101921.94;5061997;28;45223;-61
2022/07/17 03:41:49;;;;;;;;;7.25;4.25;;;;;22.81;29.26;101921.16;5056011;28;45178;-61
2022/07/17 03:44:14;;;;;;;;;3.25;3.25;;;;;22.78;29.38;101918.63;5052247;28;45225;-60
2022/07/17 03:46:39;;;;;;;;;5.00;4.75;;;;;22.76;29.11;101920.53;5041314;28;45362;-60
2022/07/17 03:49:05;;;;;;;;;4.25;3.00;;;;;22.75;28.88;101921.44;5041784;28;45286;-60
2022/07/17 03:51:30;;;;;;;;;5.50;4.00;;;;;22.70;28.98;101918.97;5041298;28;45275;-60
2022/07/17 03:53:56;;;;;;;;;4.25;4.25;;;;;22.69;29.25;101917.22;5023762;28;45563;-60
2022/07/17 03:56:22;;;;;;;;;6.00;4.75;;;;;22.62;29.34;101908.63;5041171;28;45231;-60
2022/07/17 03:58:48;;;;;;;;;4.75;4.00;;;;;22.63;29.48;101920.19;5041286;28;45424;-60
2022/07/17 04:01:13;;;;;;;;;5.00;5.00;;;;;22.62;29.75;101922.03;5041096;28;45385;-59
2022/07/17 04:03:39;;;;;;;;;4.00;3.50;;;;;22.59;29.10;101924.84;5047826;28;45248;-60
2022/07/17 04:06:04;;;;;;;;;7.00;4.50;;;;;22.56;29.85;101930.34;5059770;28;45481;-60
2022/07/17 04:08:30;;;;;;;;;3.50;3.50;;;;;22.53;29.39;101930.50;5031460;28;45349;-60
2022/07/17 04:10:55;;;;;;;;;4.50;4.50;;;;;22.48;29.37;101928.03;5056951;28;45382;-60
2022/07/17 04:13:21;;;;;;;;;3.00;3.00;;;;;22.49;29.91;101931.56;5053360;28;45517;-60
2022/07/17 04:15:49;;;;;;;;;5.00;5.00;;;;;22.46;29.99;101929.88;5039936;28;46180;-60
2022/07/17 04:18:18;;;;;;;;;3.75;3.75;;;;;22.45;29.46;101924.59;5041151;28;45325;-60
2022/07/17 04:20:43;;;;;;;;;4.50;4.00;;;;;22.43;29.59;101921.13;5040922;28;45332;-61
2022/07/17 04:23:09;;;;;;;;;2.75;2.75;;;;;22.39;29.60;101923.09;5041035;28;45440;-61
2022/07/17 04:25:34;;;;;;;;;13.50;11.25;;;;;22.39;29.93;101928.44;5040618;28;46069;-61
2022/07/17 04:28:00;;;;;;;;;7.25;5.75;;;;;22.38;29.82;101924.03;5040850;28;45385;-61
2022/07/17 04:30:25;;;;;;;;;6.00;4.75;;;;;22.37;29.97;101935.66;5040885;28;45409;-61
2022/07/17 04:32:50;;;;;;;;;5.00;5.00;;;;;22.33;29.91;101937.56;5040900;28;45307;-61
2022/07/17 04:35:16;;;;;;;;;6.00;5.00;;;;;22.28;30.26;101950.31;5040477;28;45312;-61
2022/07/17 04:37:41;;;;;;;;;4.50;3.75;;;;;22.22;29.70;101959.47;5043616;28;45349;-62
2022/07/17 04:40:07;;;;;;;;;3.50;3.50;;;;;22.20;30.48;101955.13;5059378;28;45277;-62
2022/07/17 04:42:33;;;;;;;;;4.50;4.00;;;;;22.14;30.24;101953.59;5040837;28;45305;-62
2022/07/17 04:44:58;;;;;;;;;3.50;2.75;;;;;22.11;30.42;101958.22;5039460;28;46346;-62
2022/07/17 04:47:23;;;;;;;;;5.00;5.00;;;;;22.08;30.44;101959.22;5040691;28;45237;-62
2022/07/17 04:49:49;;;;;;;;;6.50;5.00;;;;;22.04;30.41;101957.63;5040529;28;45150;-61
2022/07/17 04:52:15;;;;;;;;;4.00;4.00;;;;;22.02;30.70;101959.47;5040693;28;45372;-61
2022/07/17 04:54:40;;;;;;;;;3.00;3.00;;;;;21.99;30.40;101965.84;5040359;28;45252;-62
2022/07/17 04:57:05;;;;;;;;;6.00;4.25;;;;;21.98;30.41;101980.16;5040062;28;45299;-61
2022/07/17 04:59:31;;;;;;;;;4.00;4.00;;;;;21.99;30.78;101986.38;5068315;28;45244;-61
2022/07/17 05:01:58;;;;;;;;;2.00;2.00;;;;;21.96;30.27;101971.34;5051595;28;45569;-61
2022/07/17 05:04:23;;;;;;;;;3.00;3.00;;;;;21.98;30.76;101979.28;5052720;28;47575;-61
2022/07/17 05:06:49;;;;;;;;;3.00;3.00;;;;;21.98;30.40;101979.28;5067794;28;45369;-61
2022/07/17 05:09:14;;;;;;;;;3.50;3.50;;;;;21.98;30.77;101977.47;5080222;28;45334;-61
2022/07/17 05:11:39;;;;;;;;;3.00;3.00;;;;;22.00;30.82;101982.75;5055972;28;45253;-61
2022/07/17 05:14:05;;;;;;;;;5.00;4.00;;;;;21.98;30.42;101973.94;5046133;28;45428;-61
2022/07/17 05:16:30;;;;;;;;;3.00;3.00;;;;;22.00;30.29;101969.38;5040040;28;45273;-61
2022/07/17 05:18:55;;;;;;;;;5.50;4.25;;;;;22.01;30.61;101984.50;5040090;28;45321;-61
2022/07/17 05:21:21;;;;;;;;;13.00;11.00;;;;;22.02;30.56;101989.78;5040058;28;45330;-62
2022/07/17 05:23:46;;;;;;;;;5.00;4.00;;;;;22.01;30.75;101989.84;5039816;28;45387;-62
2022/07/17 05:26:11;;;;;;;;;3.25;3.25;;;;;22.05;30.67;101999.50;5040046;28;45346;-62
2022/07/17 05:28:37;;;;;;;;;4.00;2.50;;;;;22.06;30.61;101994.09;5039761;28;45377;-61
2022/07/17 05:31:02;;;;;;;;;4.00;4.00;;;;;22.05;30.43;101986.13;5039690;28;45464;-56
2022/07/17 05:33:28;;;;;;;;;2.25;2.25;;;;;22.09;30.93;101995.75;5039814;28;45309;-58
2022/07/17 05:35:53;;;;;;;;;3.00;3.00;;;;;22.09;30.43;101993.06;5039795;28;45329;-58
2022/07/17 05:38:18;;;;;;;;;4.00;3.00;;;;;22.11;30.35;101988.50;5053222;28;45155;-59
2022/07/17 05:40:44;;;;;;;;;4.00;4.00;;;;;22.12;30.92;101990.25;5053296;28;45326;-58
2022/07/17 05:43:09;;;;;;;;;4.00;4.00;;;;;22.14;30.38;101993.75;5039481;28;46038;-58
2022/07/17 05:45:34;;;;;;;;;3.50;3.50;;;;;22.17;30.51;101998.09;5039843;28;45217;-59
2022/07/17 05:48:00;;;;;;;;;5.00;3.50;;;;;22.14;30.86;101988.38;5039618;28;45408;-55
2022/07/17 05:50:25;;;;;;;;;5.50;4.00;;;;;22.22;30.61;101996.94;5039630;28;45820;-56
2022/07/17 05:52:51;;;;;;;;;3.75;3.75;;;;;22.22;30.91;101999.63;5039578;28;45999;-57
2022/07/17 05:55:16;;;;;;;;;3.25;3.25;;;;;22.26;30.60;101995.00;5039769;28;45224;-56
2022/07/17 05:57:41;;;;;;;;;4.25;3.00;;;;;22.31;30.93;101998.34;5039509;28;45229;-65
2022/07/17 06:00:08;;;;;;;;;5.50;5.25;;;;;22.31;30.61;102009.06;5039703;28;45212;-64
2022/07/17 06:02:33;;;;;;;;;3.00;3.00;;;;;22.37;30.98;102003.47;5039332;28;46326;-61
2022/07/17 06:04:58;;;;;;;;;3.25;3.25;;;;;22.42;30.64;102008.63;5056550;28;45411;-59
2022/07/17 06:07:24;;;;;;;;;3.75;2.00;;;;;22.43;30.80;101999.66;5046964;28;45320;-57
2022/07/17 06:09:49;;;;;;;;;3.75;3.75;;;;;22.47;31.04;102003.09;5049640;28;45262;-56
2022/07/17 06:12:14;;;;;;;;;2.75;2.75;;;;;22.51;30.57;101999.31;5057423;28;45399;-55
2022/07/17 06:14:40;;;;;;;;;5.25;5.25;;;;;22.53;30.44;102009.03;5040448;28;45352;-56
2022/07/17 06:17:05;;;;;;;;;9.25;6.25;;;;;22.56;30.55;102002.66;5039183;28;45250;-56
2022/07/17 06:19:30;;;;;;;;;4.75;4.75;;;;;22.60;30.51;102000.72;5038655;28;45351;-56
2022/07/17 06:21:56;;;;;;;;;4.00;4.00;;;;;22.64;31.01;102011.22;5039107;28;45939;-57
2022/07/17 06:24:21;;;;;;;;;3.50;3.50;;;;;22.68;30.78;102001.25;5038948;28;45483;-58
2022/07/17 06:26:46;;;;;;;;;5.50;4.50;;;;;22.71;30.42;102003.78;5039463;28;45258;-56
2022/07/17 06:29:12;;;;;;;;;5.00;2.75;;;;;22.75;30.90;102007.19;5070865;28;45295;-56
2022/07/17 06:31:37;;;;;;;;;4.25;4.25;;;;;22.79;31.16;102008.78;5037583;28;46361;-58
2022/07/17 06:34:02;;;;;;;;;4.00;2.00;;;;;22.83;30.36;102010.38;5052263;28;45324;-56
2022/07/17 06:36:28;;;;;;;;;3.50;3.50;;;;;22.84;30.79;102004.97;5039138;28;45218;-58
2022/07/17 06:38:53;;;;;;;;;5.00;5.00;;;;;22.89;30.62;102005.63;5058121;28;45296;-55
2022/07/17 06:41:18;;;;;;;;;2.75;2.75;;;;;22.93;30.90;102006.34;5050808;28;46030;-56
2022/07/17 06:43:44;;;;;;;;;4.25;4.00;;;;;22.97;30.71;102007.94;5042433;28;45407;-54
2022/07/17 06:46:09;;;;;;;;;4.25;4.25;;;;;23.02;30.34;102007.72;5042631;28;45237;-53
2022/07/17 06:48:34;;;;;;;;;3.00;3.00;;;;;23.06;30.29;102003.97;5042263;28;49405;-58
2022/07/17 06:51:00;;;;;;;;;2.25;2.25;;;;;23.09;30.58;102014.53;5042236;28;46125;-57
2022/07/17 06:53:25;;;;;;;;;3.00;3.00;;;;;23.15;30.62;102010.69;5040997;28;45430;-56
2022/07/17 06:55:50;;;;;;;;;4.75;3.25;;;;;23.17;30.51;102009.72;5041592;28;45742;-56
2022/07/17 06:58:16;;;;;;;;;4.00;3.00;;;;;23.20;30.83;102004.19;5043312;28;45416;-56
2022/07/17 07:00:41;;;;;;;;;4.00;3.00;;;;;23.25;30.51;102005.81;5023709;28;46911;-55
2022/07/17 07:03:06;;;;;;;;;2.75;2.75;;;;;23.31;30.38;102002.84;5043849;28;45321;-54
2022/07/17 07:05:32;;;;;;;;;4.75;3.75;;;;;23.35;30.65;101999.03;5047540;28;45301;-53
2022/07/17 07:07:57;;;;;;;;;4.00;4.00;;;;;23.40;30.54;102001.50;5042800;28;45142;-55
2022/07/17 07:10:22;;;;;;;;;3.50;2.00;;;;;23.44;30.69;102011.16;5053611;28;45934;-53
2022/07/17 07:12:48;;;;;;;;;3.75;2.75;;;;;23.45;30.86;102011.06;5056223;28;45280;-54
2022/07/17 07:15:14;;;;;;;;;4.00;4.00;;;;;23.51;30.28;102009.91;5051066;28;45521;-53
2022/07/17 07:17:40;;;;;;;;;4.50;3.00;;;;;23.57;30.49;102011.41;5041832;28;45298;-53
2022/07/17 07:20:06;;;;;;;;;3.00;3.00;;;;;23.59;30.65;102005.00;5041764;28;46209;-53
2022/07/17 07:22:32;;;;;;;;;4.25;2.50;;;;;23.66;30.47;102011.81;5041757;28;45288;-54
2022/07/17 07:24:58;;;;;;;;;4.50;3.25;;;;;23.72;30.62;102016.00;5041990;28;45340;-55
2022/07/17 07:27:23;;;;;;;;;5.00;3.75;;;;;23.77;30.33;102013.09;5041685;28;45527;-54
2022/07/17 07:29:49;;;;;;;;;3.75;3.75;;;;;23.83;30.25;102013.66;5024117;28;47923;-55
2022/07/17 07:32:14;;;;;;;;;4.75;4.25;;;;;23.88;30.38;102013.44;5041738;28;45448;-55
2022/07/17 07:34:39;;;;;;;;;7.00;5.00;;;;;23.91;30.58;102005.28;5041875;28;45317;-55
2022/07/17 07:37:05;;;;;;;;;4.75;3.75;;;;;23.99;30.30;102013.78;5041601;28;49834;-54
2022/07/17 07:39:30;;;;;;;;;4.50;3.00;;;;;24.05;30.19;102009.03;5041703;28;45229;-55
2022/07/17 07:41:56;;;;;;;;;5.00;4.00;;;;;24.10;30.29;102009.66;5041591;28;45301;-55
2022/07/17 07:44:21;;;;;;;;;3.25;3.00;;;;;24.14;29.95;102003.22;5041754;28;45198;-55
2022/07/17 07:46:46;;;;;;;;;2.25;2.00;;;;;24.18;30.49;101996.72;5023835;28;45292;-57
2022/07/17 07:49:12;;;;;;;;;3.00;3.00;;;;;24.24;30.42;101998.22;5023781;28;47054;-56
2022/07/17 07:51:37;;;;;;;;;5.75;4.50;;;;;24.29;30.27;101999.72;5039938;28;45284;-56
2022/07/17 07:54:03;;;;;;;;;4.75;4.50;;;;;24.36;30.20;101994.03;5024249;28;45260;-56
2022/07/17 07:56:28;;;;;;;;;3.50;3.25;;;;;24.42;30.24;102002.63;5041458;28;45428;-57
2022/07/17 07:58:53;;;;;;;;;4.00;3.00;;;;;24.47;30.11;101999.72;5034012;28;54738;-56
2022/07/17 08:01:19;;;;;;;;;5.50;4.00;;;;;24.55;30.17;102002.84;5039926;28;45329;-56
2022/07/17 08:03:44;;;;;;;;;4.50;4.50;;;;;24.61;30.24;101998.97;5041715;28;45254;-56
2022/07/17 08:06:10;;;;;;;;;4.00;4.00;;;;;24.67;30.19;102010.28;5058034;28;45487;-56
2022/07/17 08:08:35;;;;;;;;;2.00;2.00;;;;;24.72;30.18;101998.44;5061361;28;46931;-56
2022/07/17 08:11:00;;;;;;;;;6.75;5.00;;;;;24.81;29.74;102000.59;5061205;28;45376;-56
2022/07/17 08:13:26;;;;;;;;;5.00;4.25;;;;;24.88;30.03;102003.81;5061609;28;45308;-56
2022/07/17 08:15:52;;;;;;;;;3.00;3.00;;;;;24.92;29.96;101995.50;5061163;28;45340;-57
2022/07/17 08:18:17;;;;;;;;;4.00;4.00;;;;;25.02;29.80;102003.03;5061298;28;46121;-57
2022/07/17 08:20:43;;;;;;;;;3.75;3.75;;;;;25.08;29.99;102000.91;5060993;28;45367;-57
2022/07/17 08:23:08;;;;;;;;;3.75;3.75;;;;;25.15;29.73;101998.72;5061693;28;45304;-57
2022/07/17 08:25:34;;;;;;;;;3.00;3.00;;;;;25.23;29.78;102000.97;5042950;28;45545;-58
2022/07/17 08:28:00;;;;;;;;;3.75;2.00;;;;;25.30;29.93;101999.69;5061004;28;45372;-58
2022/07/17 08:30:25;;;;;;;;;4.25;3.75;;;;;25.35;29.66;101997.59;5060899;28;45221;-58
2022/07/17 08:32:51;;;;;;;;;3.50;3.50;;;;;25.41;29.72;101991.91;5061191;28;45512;-58
2022/07/17 08:35:16;;;;;;;;;7.00;5.75;;;;;25.50;29.73;101995.88;5060787;28;45432;-58
2022/07/17 08:37:47;;;;;;;;;3.75;3.75;;;;;25.56;30.04;101992.84;5060987;28;45162;-57
2022/07/17 08:40:24;;;;;;;;;3.50;3.00;;;;;25.65;29.54;102002.19;5060987;28;45365;-57
2022/07/17 08:42:50;;;;;;;;;4.25;4.25;;;;;25.73;29.28;102001.75;5061033;28;45303;-57
2022/07/17 08:45:16;;;;;;;;;4.00;4.00;;;;;25.80;29.85;102000.44;5060645;28;45195;-57
2022/07/17 08:47:41;;;;;;;;;3.00;3.00;;;;;25.88;29.67;102000.84;5060628;28;45345;-57
2022/07/17 08:50:10;;;;;;;;;4.00;3.00;;;;;25.96;29.22;102003.06;5060437;28;45332;-57
2022/07/17 08:52:40;;;;;;;;;3.25;3.25;;;;;26.03;29.43;102000.91;5060473;28;45383;-57
2022/07/17 08:55:13;;;;;;;;;3.50;3.50;;;;;26.11;29.75;102006.69;5060630;28;45253;-57
2022/07/17 08:57:43;;;;;;;;;3.00;3.00;;;;;26.19;29.37;101993.66;5060450;28;45371;-57
2022/07/17 09:00:14;;;;;;;;;5.00;4.00;;;;;26.27;29.37;101993.19;5060641;28;45380;-57
2022/07/17 09:02:40;;;;;;;;;3.50;3.00;;;;;26.35;29.66;101998.97;5060128;28;45420;-57
2022/07/17 09:05:06;;;;;;;;;2.50;2.50;;;;;26.42;29.37;101994.06;5058914;28;45435;-57
2022/07/17 09:07:32;;;;;;;;;4.00;4.00;;;;;26.43;29.32;101983.19;5060382;28;46950;-57
2022/07/17 09:09:58;;;;;;;;;7.75;6.25;;;;;26.58;29.43;101989.44;5060442;28;45221;-57
2022/07/17 09:12:29;;;;;;;;;3.00;3.00;;;;;26.67;28.73;101987.16;5042369;28;45400;-57
2022/07/17 09:14:55;;;;;;;;;2.50;2.50;;;;;26.76;28.53;101986.59;5060579;28;45375;-57
2022/07/17 09:17:22;;;;;;;;;4.75;4.75;;;;;26.84;29.12;101994.19;5060036;28;46610;-57
2022/07/17 09:19:48;;;;;;;;;5.00;5.00;;;;;26.94;29.12;101984.53;5060420;28;45330;-57
2022/07/17 09:22:21;;;;;;;;;7.25;6.25;;;;;27.04;29.25;101987.50;5060279;28;45243;-57
2022/07/17 09:24:55;;;;;;;;;10.00;10.00;;;;;27.12;28.54;101990.59;5060432;28;45274;-57
2022/07/17 09:27:23;;;;;;;;;15.00;11.75;;;;;27.22;28.73;101991.72;5059887;28;45992;-57
2022/07/17 09:29:54;;;;;;;;;12.25;12.00;;;;;27.32;28.50;101985.72;5060400;28;45322;-57
2022/07/17 09:32:21;;;;;;;;;6.00;6.00;;;;;27.41;28.81;101990.56;5060128;28;45273;-57
2022/07/17 09:34:48;;;;;;;;;5.50;5.00;;;;;27.51;28.82;101990.78;5059901;28;45171;-57
2022/07/17 09:37:14;;;;;;;;;5.25;5.25;;;;;27.60;28.67;101987.47;5059962;28;46148;-57
2022/07/17 09:39:40;;;;;;;;;5.00;5.00;;;;;27.70;28.40;101996.69;5060119;28;45260;-57
2022/07/17 09:42:06;;;;;;;;;3.00;3.00;;;;;27.79;28.69;101995.19;5041976;28;45268;-57
2022/07/17 09:44:31;;;;;;;;;5.00;4.00;;;;;27.92;28.25;101995.22;5060183;28;45310;-57
2022/07/17 09:46:57;;;;;;;;;6.75;5.50;;;;;28.03;27.99;101995.38;5059756;28;45400;-57
2022/07/17 09:49:26;;;;;;;;;5.75;5.50;;;;;28.14;28.32;101996.47;5059836;28;45293;-57
2022/07/17 09:51:53;;;;;;;;;5.75;4.00;;;;;28.26;27.77;101989.38;5059857;28;45427;-57
2022/07/17 09:54:21;;;;;;;;;5.50;5.00;;;;;28.36;28.21;101988.63;5059848;28;45233;-58
2022/07/17 09:56:50;;;;;;;;;5.00;5.00;;;;;28.46;27.98;101983.41;5059655;28;46233;-58
2022/07/17 09:59:17;;;;;;;;;4.75;4.25;;;;;28.58;27.90;101995.19;5059551;28;45320;-58
2022/07/17 10:01:44;;;;;;;;;7.00;6.00;;;;;28.67;27.77;101989.16;5059652;28;45381;-57
2022/07/17 10:04:10;;;;;;;;;6.00;5.00;;;;;28.77;27.69;101985.81;5058331;28;45514;-57
2022/07/17 10:06:36;;;;;;;;;4.00;4.00;;;;;28.85;27.53;101984.28;5059406;28;46672;-57
2022/07/17 10:09:02;;;;;;;;;5.00;5.00;;;;;28.95;27.50;101986.31;5058865;28;45272;-57
2022/07/17 10:11:34;;;;;;;;;10.25;9.00;;;;;29.03;27.27;101986.59;5059679;28;45254;-58
2022/07/17 10:14:08;;;;;;;;;16.00;14.25;;;;;29.12;27.23;101991.34;5060141;28;45466;-57
2022/07/17 10:16:35;;;;;;;;;5.50;5.50;;;;;29.21;27.34;101992.50;5063164;28;46131;-57
2022/07/17 10:19:02;;;;;;;;;11.25;11.00;;;;;29.30;27.29;101991.00;5062947;28;45356;-57
2022/07/17 10:21:30;;;;;;;;;7.75;6.00;;;;;29.39;27.09;101990.28;5063060;28;45336;-58
2022/07/17 10:23:55;;;;;;;;;5.50;4.00;;;;;29.45;27.35;101997.94;5063046;28;45348;-57
2022/07/17 10:26:48;;;;;;;;;5.50;5.00;;;;;29.55;26.79;101997.25;5044794;28;46266;-57
2022/07/17 10:29:26;;;;;;;;;7.00;7.00;;;;;29.65;26.96;101993.72;5062163;28;45503;-57
2022/07/17 10:31:52;;;;;;;;;8.50;8.50;;;;;29.75;26.79;101990.31;5062870;28;45308;-57
2022/07/17 10:34:22;;;;;;;;;9.25;9.25;;;;;29.86;26.52;101992.22;5044523;28;45262;-57
2022/07/17 10:36:47;;;;;;;;;5.25;5.25;;;;;29.98;26.60;101994.84;5062565;28;46223;-57
2022/07/17 10:39:17;;;;;;;;;3.25;3.25;;;;;30.10;26.68;102003.91;5062805;28;45235;-58
2022/07/17 10:41:55;;;;;;;;;4.75;3.75;;;;;30.27;26.71;102001.72;5062617;28;45451;-58
2022/07/17 10:44:26;;;;;;;;;3.25;3.25;;;;;30.42;26.67;102016.75;5063002;28;45372;-58
2022/07/17 10:46:52;;;;;;;;;3.75;3.75;;;;;30.61;26.47;102008.03;5062269;28;47265;-58
2022/07/17 10:49:17;;;;;;;;;6.50;4.50;;;;;30.84;26.63;102001.75;5062458;28;45217;-58
2022/07/17 10:51:43;;;;;;;;;4.00;1.75;;;;;31.18;26.29;102005.31;5062743;28;45606;-58
2022/07/17 10:54:08;;;;;;;;;4.00;4.00;;;;;31.60;27.17;102004.59;5062939;28;45233;-57
2022/07/17 10:56:35;;;;;;;;;3.75;3.75;;;;;32.14;27.12;102007.28;5062478;28;46064;-57
2022/07/17 10:59:02;;;;;;;;;4.00;4.00;;;;;32.67;26.67;102009.91;5062508;28;45336;-57
2022/07/17 11:01:28;;;;;;;;;2.75;2.75;;;;;33.23;26.97;102004.94;5027713;28;45310;-57
2022/07/17 11:03:59;;;;;;;;;5.00;4.25;;;;;33.82;26.54;102007.75;5044393;28;45517;-57
2022/07/17 11:06:33;;;;;;;;;4.75;4.75;;;;;34.43;26.60;102003.78;5040461;28;46095;-57
2022/07/17 11:09:01;;;;;;;;;4.00;4.00;;;;;35.06;26.42;102009.56;5042374;28;45391;-58
2022/07/17 11:11:40;;;;;;;;;5.75;4.00;;;;;35.79;26.57;102005.84;5024437;28;45271;-57
2022/07/17 11:14:11;;;;;;;;;4.00;4.00;;;;;36.53;26.46;101992.72;5042020;28;45555;-57
2022/07/17 11:16:37;;;;;;;;;3.00;3.00;;;;;37.29;26.28;102001.03;5042020;28;46257;-57
2022/07/17 11:19:03;;;;;;;;;6.00;6.00;;;;;38.04;26.23;101994.56;5041908;28;45337;-57